Time;durP1;ratioP1;P1;durP2;ratioP2;P2;SDS_P1;SDS_P2;PMS_P1;PMS_P2;Temp;Humidity;BMP_temperature;BMP_pressure;BME280_temperature;BME280_humidity;BME280_pressure;Samples;Min_cycle;Max_cycle;Signal;HPM_P1;HPM_P2
2022/07/06 00:01:40;;;;;;;3.78;1.23;;;;;;;13.15;100.00;155827.28;4983270;28;20069;-79
2022/07/06 00:04:06;;;;;;;4.05;1.00;;;;;;;13.02;100.00;155795.16;4990074;28;20037;-79
2022/07/06 00:06:32;;;;;;;4.50;1.50;;;;;;;12.91;100.00;155766.88;5002428;28;20404;-80
2022/07/06 00:08:57;;;;;;;5.28;1.15;;;;;;;12.91;100.00;155765.59;4960080;28;20038;-80
2022/07/06 00:11:23;;;;;;;7.28;1.10;;;;;;;12.84;100.00;155748.88;4985100;28;20062;-79
2022/07/06 00:13:49;;;;;;;6.75;1.40;;;;;;;12.89;100.00;155760.47;4972955;28;20037;-79
2022/07/06 00:16:15;;;;;;;5.63;1.35;;;;;;;12.89;100.00;155761.75;4977464;28;20038;-79
2022/07/06 00:18:41;;;;;;;6.20;1.50;;;;;;;12.87;100.00;155755.34;4999375;28;20043;-79
2022/07/06 00:21:06;;;;;;;5.47;1.23;;;;;;;12.96;100.00;155778.44;4990856;28;20049;-79
2022/07/06 00:23:32;;;;;;;7.40;1.40;;;;;;;13.14;100.00;155824.69;4984975;28;20039;-79
2022/07/06 00:25:58;;;;;;;6.25;1.20;;;;;;;13.10;100.00;155814.41;4979500;28;20077;-79
2022/07/06 00:28:24;;;;;;;7.85;1.30;;;;;;;13.05;100.00;155802.88;4993657;28;20038;-79
2022/07/06 00:30:49;;;;;;;5.45;1.30;;;;;;;13.12;100.00;155818.28;4997473;28;20632;-80
2022/07/06 00:33:15;;;;;;;5.53;1.10;;;;;;;13.13;100.00;155820.81;4967856;28;20038;-79
2022/07/06 00:35:41;;;;;;;7.68;1.33;;;;;;;13.10;100.00;155814.41;4984670;28;20039;-78
2022/07/06 00:38:07;;;;;;;7.25;1.15;;;;;;;13.05;100.00;155802.88;4968804;28;20041;-80
2022/07/06 00:40:33;;;;;;;4.20;1.27;;;;;;;12.95;100.00;155775.88;4967838;28;20045;-78
2022/07/06 00:42:58;;;;;;;7.30;1.42;;;;;;;12.93;100.00;155770.75;4977077;28;20039;-78
2022/07/06 00:45:24;;;;;;;4.65;1.33;;;;;;;12.83;100.00;155747.63;4946163;28;20038;-79
2022/07/06 00:47:50;;;;;;;6.38;1.40;;;;;;;12.79;100.00;155737.34;4958419;28;20113;-78
2022/07/06 00:50:20;;;;;;;4.95;1.42;;;;;;;12.78;100.00;155733.47;4989565;28;20129;-78
2022/07/06 00:52:51;;;;;;;5.47;1.30;;;;;;;12.77;100.00;155730.88;4974843;28;20028;-80
2022/07/06 00:55:19;;;;;;;5.32;1.40;;;;;;;12.68;100.00;155709.09;4969020;28;20133;-78
2022/07/06 00:57:45;;;;;;;5.57;1.48;;;;;;;12.69;100.00;155710.34;4989163;28;20101;-78
2022/07/06 01:00:13;;;;;;;5.43;1.38;;;;;;;12.69;100.00;155710.34;5001622;28;20042;-79
2022/07/06 01:02:39;;;;;;;9.50;1.60;;;;;;;12.71;100.00;155715.50;4983318;28;20038;-79
2022/07/06 01:05:07;;;;;;;6.53;1.33;;;;;;;12.75;100.00;155725.75;4986822;28;20029;-77
2022/07/06 01:07:33;;;;;;;6.75;1.40;;;;;;;12.76;100.00;155728.34;4977769;28;20061;-82
2022/07/06 01:10:00;;;;;;;3.20;1.20;;;;;;;12.73;100.00;155721.91;4966944;28;20066;-79
2022/07/06 01:12:26;;;;;;;7.97;1.60;;;;;;;12.78;100.00;155733.47;4969051;28;20034;-78
2022/07/06 01:14:53;;;;;;;4.35;1.10;;;;;;;12.87;100.00;155756.59;4976146;28;20101;-80
2022/07/06 01:17:18;;;;;;;4.60;1.20;;;;;;;12.95;100.00;155775.88;4986730;28;20034;-78
2022/07/06 01:19:44;;;;;;;5.05;1.20;;;;;;;13.02;100.00;155793.88;4971167;28;20042;-78
2022/07/06 01:22:10;;;;;;;5.60;1.45;;;;;;;12.96;100.00;155778.44;4969652;28;20035;-77
2022/07/06 01:24:38;;;;;;;4.35;1.20;;;;;;;12.94;100.00;155774.63;4987054;28;20039;-78
2022/07/06 01:27:05;;;;;;;7.75;1.30;;;;;;;12.87;100.00;155756.59;4949770;28;20038;-78
2022/07/06 01:29:31;;;;;;;7.07;1.50;;;;;;;12.84;100.00;155750.16;4968710;28;20112;-80
2022/07/06 01:31:58;;;;;;;5.13;1.20;;;;;;;12.87;100.00;155755.34;4957875;28;20064;-77
2022/07/06 01:34:25;;;;;;;4.45;1.17;;;;;;;12.95;100.00;155775.88;4969985;28;20476;-78
2022/07/06 01:36:51;;;;;;;5.32;1.13;;;;;;;13.02;100.00;155793.88;4973805;28;20058;-79
2022/07/06 01:39:18;;;;;;;7.63;1.45;;;;;;;13.02;100.00;155793.88;5001250;28;20046;-81
2022/07/06 01:41:44;;;;;;;3.88;1.30;;;;;;;13.03;100.00;155797.75;4983951;28;20031;-78
2022/07/06 01:44:10;;;;;;;6.22;1.30;;;;;;;13.06;100.00;155804.16;4953483;28;20109;-78
2022/07/06 01:46:37;;;;;;;8.13;1.33;;;;;;;13.04;100.00;155799.00;4971827;28;20122;-79
2022/07/06 01:49:03;;;;;;;3.63;1.15;;;;;;;13.05;100.00;155801.56;4973415;28;20121;-79
2022/07/06 01:51:30;;;;;;;7.75;1.40;;;;;;;13.01;100.00;155791.28;4975835;28;20126;-80
2022/07/06 01:53:57;;;;;;;8.82;1.48;;;;;;;12.93;100.00;155770.75;4967095;28;20135;-78
2022/07/06 01:56:24;;;;;;;3.47;1.17;;;;;;;12.90;100.00;155763.03;5002938;28;20042;-78
2022/07/06 01:58:55;;;;;;;2.28;1.02;;;;;;;12.86;100.00;155754.03;4967819;28;20039;-78
2022/07/06 02:01:23;;;;;;;6.40;1.42;;;;;;;12.86;100.00;155754.03;4968685;28;20100;-77
2022/07/06 02:03:48;;;;;;;7.65;1.75;;;;;;;12.90;100.00;155764.28;5006981;28;20030;-79
2022/07/06 02:06:14;;;;;;;10.15;1.52;;;;;;;12.84;100.00;155750.16;4955014;28;20061;-78
2022/07/06 02:08:41;;;;;;;4.78;1.67;;;;;;;12.93;100.00;155772.00;4990693;28;20493;-80
2022/07/06 02:11:08;;;;;;;5.03;1.20;;;;;;;12.80;100.00;155739.88;4990029;28;20062;-78
2022/07/06 02:13:36;;;;;;;7.85;1.67;;;;;;;12.73;100.00;155721.91;4973109;28;20631;-79
2022/07/06 02:16:04;;;;;;;4.63;1.58;;;;;;;12.64;100.00;155698.81;4979090;28;20061;-77
2022/07/06 02:18:30;;;;;;;5.18;1.30;;;;;;;12.68;100.00;155709.09;4984490;28;20062;-79
2022/07/06 02:20:56;;;;;;;6.88;1.73;;;;;;;12.65;100.00;155701.34;4975126;28;20046;-79
2022/07/06 02:23:22;;;;;;;6.72;1.33;;;;;;;12.70;100.00;155714.22;4971023;28;20565;-78
2022/07/06 02:25:49;;;;;;;7.45;1.50;;;;;;;12.61;100.00;155692.34;4989196;28;20046;-76
2022/07/06 02:28:15;;;;;;;10.40;1.45;;;;;;;12.68;100.00;155707.75;4970556;28;20050;-78
2022/07/06 02:30:41;;;;;;;13.52;1.58;;;;;;;12.83;100.00;155746.34;4987126;28;20100;-78
2022/07/06 02:33:06;;;;;;;8.73;1.42;;;;;;;12.95;100.00;155777.16;4970256;28;20186;-79
2022/07/06 02:35:33;;;;;;;6.63;1.30;;;;;;;12.86;100.00;155754.03;5007625;28;20042;-79
2022/07/06 02:37:59;;;;;;;8.73;1.52;;;;;;;12.95;100.00;155775.88;4977586;28;20057;-78
2022/07/06 02:40:25;;;;;;;7.68;1.70;;;;;;;12.93;100.00;155772.00;4993634;28;20039;-79
2022/07/06 02:42:51;;;;;;;7.88;1.45;;;;;;;12.92;100.00;155769.47;4989990;28;20473;-78
2022/07/06 02:45:18;;;;;;;12.32;2.00;;;;;;;12.94;100.00;155773.28;4981307;28;20437;-78
2022/07/06 02:47:43;;;;;;;10.05;2.00;;;;;;;13.05;100.00;155801.56;4972017;28;20031;-78
2022/07/06 02:50:09;;;;;;;9.38;1.85;;;;;;;13.04;100.00;155800.28;4983796;28;20038;-78
2022/07/06 02:52:35;;;;;;;10.73;1.63;;;;;;;13.15;100.00;155826.00;4955701;28;20081;-78
2022/07/06 02:55:02;;;;;;;11.35;1.77;;;;;;;13.17;100.00;155832.41;4972186;28;20045;-79
2022/07/06 02:57:28;;;;;;;8.82;1.88;;;;;;;13.19;100.00;155836.28;5005190;28;20031;-79
2022/07/06 02:59:53;;;;;;;10.77;2.13;;;;;;;13.20;100.00;155840.16;4990306;28;20061;-77
2022/07/06 03:02:19;;;;;;;10.40;1.88;;;;;;;13.22;100.00;155845.28;4986147;28;20042;-78
2022/07/06 03:04:45;;;;;;;10.68;2.22;;;;;;;13.11;100.00;155817.00;4965289;28;20133;-77
2022/07/06 03:07:12;;;;;;;13.25;2.10;;;;;;;13.12;100.00;155818.28;4988383;28;20026;-79
2022/07/06 03:09:38;;;;;;;11.52;1.73;;;;;;;13.08;100.00;155809.28;4976655;28;20038;-78
2022/07/06 03:12:04;;;;;;;6.88;1.88;;;;;;;13.05;100.00;155802.88;4984932;28;20039;-77
2022/07/06 03:14:31;;;;;;;11.35;2.05;;;;;;;13.00;100.00;155788.75;4971502;28;20121;-79
2022/07/06 03:16:57;;;;;;;9.20;2.10;;;;;;;12.93;100.00;155772.00;4990556;28;20141;-78
2022/07/06 03:19:23;;;;;;;15.27;2.00;;;;;;;12.96;100.00;155778.44;4974045;28;20511;-78
2022/07/06 03:21:48;;;;;;;10.52;1.85;;;;;;;12.98;100.00;155784.88;4970002;28;20081;-79
2022/07/06 03:24:14;;;;;;;7.85;1.70;;;;;;;12.98;100.00;155783.59;4957003;28;20026;-79
2022/07/06 03:26:40;;;;;;;12.73;1.83;;;;;;;12.89;100.00;155761.75;4971370;28;20125;-77
2022/07/06 03:29:06;;;;;;;10.88;1.90;;;;;;;12.89;100.00;155760.47;4967248;28;20121;-78
2022/07/06 03:31:31;;;;;;;11.50;1.70;;;;;;;12.94;100.00;155773.28;4993181;28;20037;-79
2022/07/06 03:33:57;;;;;;;12.88;2.40;;;;;;;12.84;100.00;155748.88;4954716;28;20035;-78
2022/07/06 03:36:24;;;;;;;6.82;1.90;;;;;;;12.85;100.00;155752.75;4956452;28;20041;-77
2022/07/06 03:38:50;;;;;;;8.15;1.90;;;;;;;12.83;100.00;155747.63;4983956;28;20117;-76
2022/07/06 03:41:17;;;;;;;9.57;1.90;;;;;;;12.82;100.00;155745.03;4964459;28;21302;-77
2022/07/06 03:43:42;;;;;;;10.73;1.80;;;;;;;12.89;100.00;155760.47;4985837;28;20038;-78
2022/07/06 03:46:08;;;;;;;7.28;1.60;;;;;;;12.93;100.00;155770.75;4971972;28;20044;-78
2022/07/06 03:48:34;;;;;;;4.93;1.42;;;;;;;12.91;100.00;155765.59;4985943;28;20100;-78
2022/07/06 03:51:03;;;;;;;8.57;1.88;;;;;;;12.87;100.00;155756.59;4991203;28;20034;-79
2022/07/06 03:53:28;;;;;;;7.80;1.52;;;;;;;12.93;100.00;155772.00;4994021;28;20095;-77
2022/07/06 03:58:39;;;;;;;7.93;1.52;;;;;;;13.03;100.00;155796.41;4976214;28;20051;-78
2022/07/06 04:01:06;;;;;;;5.25;1.50;;;;;;;13.04;100.00;155799.00;4993710;28;20046;-79
2022/07/06 04:03:32;;;;;;;5.60;1.45;;;;;;;13.10;100.00;155813.16;4989225;28;20400;-78
2022/07/06 04:05:57;;;;;;;5.72;1.55;;;;;;;13.08;100.00;155809.28;4962634;28;20034;-78
2022/07/06 04:08:23;;;;;;;7.55;1.38;;;;;;;13.14;100.00;155823.41;4988359;28;20042;-78
2022/07/06 04:10:54;;;;;;;9.52;1.30;;;;;;;13.33;100.00;155872.28;4976945;28;20038;-78
2022/07/06 04:13:21;;;;;;;5.63;1.20;;;;;;;13.28;100.00;155858.09;4974622;28;20041;-80
2022/07/06 04:15:46;;;;;;;5.40;1.13;;;;;;;13.39;100.00;155887.75;4968918;28;20038;-80
2022/07/06 04:18:12;;;;;;;7.53;1.35;;;;;;;13.27;100.00;155856.81;4985101;28;20088;-79
2022/07/06 04:20:45;;;;;;;6.55;1.70;;;;;;;13.24;100.00;155850.41;4975346;28;20042;-79
2022/07/06 04:23:11;;;;;;;8.82;1.25;;;;;;;13.19;100.00;155836.28;4969270;28;20619;-80
2022/07/06 04:25:36;;;;;;;6.70;1.55;;;;;;;13.10;100.00;155814.41;4969507;28;20092;-78
2022/07/06 04:28:02;;;;;;;7.07;1.40;;;;;;;13.02;100.00;155795.16;4965740;28;20045;-79
2022/07/06 04:30:30;;;;;;;5.03;1.65;;;;;;;12.99;100.00;155786.16;4957694;28;20038;-78
2022/07/06 04:32:56;;;;;;;7.38;1.58;;;;;;;13.06;100.00;155804.16;4967371;28;20129;-80
2022/07/06 04:35:24;;;;;;;8.23;1.83;;;;;;;13.07;100.00;155806.69;4965133;28;20042;-78
2022/07/06 04:37:51;;;;;;;8.73;1.73;;;;;;;13.12;100.00;155819.56;4974376;28;20054;-78
2022/07/06 04:40:19;;;;;;;8.20;1.70;;;;;;;13.15;100.00;155826.00;5004349;28;20038;-79
2022/07/06 04:42:47;;;;;;;5.68;1.55;;;;;;;13.19;100.00;155836.28;4972570;28;20133;-77
2022/07/06 04:45:13;;;;;;;5.07;1.30;;;;;;;13.21;100.00;155842.69;4969960;28;20045;-79
2022/07/06 04:47:39;;;;;;;6.55;1.55;;;;;;;13.24;100.00;155850.41;4986146;28;20034;-78
2022/07/06 04:50:05;;;;;;;5.80;1.40;;;;;;;13.21;100.00;155842.69;4948108;28;20100;-78
2022/07/06 04:52:32;;;;;;;7.25;1.70;;;;;;;13.43;100.00;155898.00;4979664;28;20089;-78
2022/07/06 04:54:58;;;;;;;6.60;1.42;;;;;;;13.46;100.00;155903.16;4963784;28;20038;-79
2022/07/06 04:57:29;;;;;;;7.28;1.58;;;;;;;13.53;100.00;155921.16;4975589;28;20049;-77
2022/07/06 04:59:57;;;;;;;3.40;1.27;;;;;;;13.54;100.00;155925.03;4951300;28;20417;-78
2022/07/06 05:02:23;;;;;;;5.55;1.45;;;;;;;13.60;100.00;155940.44;4973212;28;20093;-79
2022/07/06 05:04:50;;;;;;;10.10;2.17;;;;;;;13.65;100.00;155950.69;4963896;28;20034;-78
2022/07/06 05:07:15;;;;;;;4.57;1.27;;;;;;;13.75;100.00;155977.72;4963306;28;20120;-78
2022/07/06 05:09:41;;;;;;;6.25;1.70;;;;;;;13.78;100.00;155985.41;4983512;28;20500;-76
2022/07/06 05:12:08;;;;;;;5.20;1.13;;;;;;;13.83;100.00;155997.00;4969823;28;20038;-78
2022/07/06 05:14:34;;;;;;;10.65;1.77;;;;;;;13.83;100.00;155998.25;4977669;28;20064;-78
2022/07/06 05:16:59;;;;;;;5.30;1.52;;;;;;;13.84;100.00;155999.53;4969658;28;20050;-78
2022/07/06 05:19:25;;;;;;;6.45;1.25;;;;;;;13.83;100.00;155998.25;4951612;28;20096;-79
2022/07/06 05:21:51;;;;;;;6.88;1.30;;;;;;;13.81;100.00;155991.84;4986843;28;20468;-77
2022/07/06 05:24:18;;;;;;;6.45;1.15;;;;;;;13.86;100.00;156003.41;4964970;28;20082;-79
2022/07/06 05:26:45;;;;;;;5.53;1.17;;;;;;;13.95;100.00;156027.81;4969451;28;20030;-79
2022/07/06 05:29:11;;;;;;;5.03;1.23;;;;;;;14.01;100.00;156043.28;4973314;28;20033;-79
2022/07/06 05:31:37;;;;;;;4.30;1.17;;;;;;;14.02;100.00;156045.81;5006582;28;20044;-78
2022/07/06 05:34:03;;;;;;;5.32;1.10;;;;;;;14.02;100.00;156044.56;4970454;28;20491;-78
2022/07/06 05:36:30;;;;;;;5.32;1.10;;;;;;;14.07;100.00;156057.41;4957284;28;20038;-77
2022/07/06 05:38:57;;;;;;;6.00;1.33;;;;;;;14.17;100.00;156081.84;4971075;28;20038;-79
2022/07/06 05:41:23;;;;;;;4.60;1.13;;;;;;;14.25;100.00;156101.13;4976751;28;20039;-79
2022/07/06 05:43:50;;;;;;;4.78;1.23;;;;;;;14.23;100.00;156097.25;4972084;28;20748;-79
2022/07/06 05:46:16;;;;;;;6.43;1.25;;;;;;;14.32;100.00;156120.41;4974882;28;20038;-78
2022/07/06 05:51:26;;;;;;;8.20;1.48;;;;;;;14.42;100.00;156144.84;5006875;28;20066;-79
2022/07/06 05:53:52;;;;;;;5.60;1.20;;;;;;;14.44;100.00;156149.97;5006865;28;20037;-79
2022/07/06 05:56:19;;;;;;;5.00;1.25;;;;;;;14.52;100.00;156170.59;4989993;28;20034;-79
2022/07/06 05:58:45;;;;;;;3.00;1.00;;;;;;;14.59;100.00;156188.59;4976223;28;20062;-78
2022/07/06 06:01:11;;;;;;;3.88;1.10;;;;;;;14.74;100.00;156225.91;4989142;28;20199;-79
2022/07/06 06:03:39;;;;;;;6.55;1.00;;;;;;;14.78;100.00;156236.19;4965137;28;20034;-77
2022/07/06 06:06:05;;;;;;;4.60;0.90;;;;;;;14.75;100.00;156228.50;4989546;28;20092;-78
2022/07/06 06:08:31;;;;;;;6.35;1.17;;;;;;;14.82;100.00;156243.91;4990603;28;20412;-79
2022/07/06 06:10:57;;;;;;;5.90;0.90;;;;;;;14.88;100.00;156259.34;4971509;28;20034;-79
2022/07/06 06:13:27;;;;;;;5.78;1.10;;;;;;;14.93;100.00;156272.22;4975615;28;20035;-78
2022/07/06 06:15:53;;;;;;;8.90;1.20;;;;;;;14.90;100.00;156264.47;4983226;28;20055;-78
2022/07/06 06:18:19;;;;;;;8.23;1.30;;;;;;;14.97;100.00;156282.50;4952108;28;20042;-78
2022/07/06 06:20:45;;;;;;;6.38;1.42;;;;;;;14.99;100.00;156288.97;4973015;28;20044;-77
2022/07/06 06:23:11;;;;;;;8.48;1.30;;;;;;;15.04;100.00;156299.25;4950526;28;20039;-78
2022/07/06 06:25:38;;;;;;;6.78;1.25;;;;;;;15.01;100.00;156292.78;4974041;28;20038;-79
2022/07/06 06:28:09;;;;;;;6.97;1.20;;;;;;;14.99;100.00;156287.63;4982610;28;20034;-77
2022/07/06 06:30:36;;;;;;;7.45;1.10;;;;;;;14.86;100.00;156255.53;4991368;28;20042;-79
2022/07/06 06:33:16;;;;;;;9.90;1.10;;;;;;;14.77;100.00;156233.63;4972789;28;20038;-78
2022/07/06 06:35:44;;;;;;;3.88;1.00;;;;;;;14.59;100.00;156188.59;4990471;28;20069;-78
2022/07/06 06:38:10;;;;;;;3.58;0.98;;;;;;;14.52;100.00;156169.25;4983983;28;20061;-81
2022/07/06 06:40:36;;;;;;;5.63;1.10;;;;;;;14.50;100.00;156164.13;5006299;28;20077;-80
2022/07/06 06:43:01;;;;;;;7.13;1.15;;;;;;;14.49;100.00;156161.56;4977408;28;20133;-77
2022/07/06 06:45:29;;;;;;;6.85;1.20;;;;;;;14.47;100.00;156156.44;4973195;28;20038;-79
2022/07/06 06:47:54;;;;;;;9.50;1.10;;;;;;;14.53;100.00;156171.84;4986102;28;20093;-79
2022/07/06 06:50:20;;;;;;;3.53;0.88;;;;;;;14.61;100.00;156192.47;4966960;28;20034;-79
2022/07/06 06:52:46;;;;;;;9.48;1.15;;;;;;;14.86;100.00;156254.19;4991931;28;20121;-78
2022/07/06 06:55:12;;;;;;;6.53;1.35;;;;;;;14.93;100.00;156273.50;4969429;28;20042;-78
2022/07/06 06:57:38;;;;;;;7.68;0.95;;;;;;;15.11;100.00;156317.28;4988128;28;20049;-81
2022/07/06 07:11:08;;;;;;;4.50;0.80;;;;;;;15.98;97.67;156534.78;5063910;27;20773;-77
2022/07/06 07:13:33;;;;;;;6.78;1.02;;;;;;;15.99;100.00;156538.63;5056609;28;20050;-77
2022/07/06 07:15:59;;;;;;;5.70;1.20;;;;;;;16.04;98.14;156550.22;5035413;28;20044;-77
2022/07/06 07:18:24;;;;;;;3.78;1.00;;;;;;;15.99;99.40;156538.63;5050261;28;20029;-77
2022/07/06 07:20:50;;;;;;;9.40;0.88;;;;;;;15.90;98.91;156516.75;5037220;28;20462;-77
2022/07/06 07:23:15;;;;;;;6.15;1.00;;;;;;;15.64;98.04;156451.06;5030123;23;20038;-78
2022/07/06 07:25:41;;;;;;;4.72;0.80;;;;;;;15.47;100.00;156408.59;5039825;28;20420;-81
2022/07/06 07:28:07;;;;;;;5.85;1.00;;;;;;;15.64;100.00;156449.78;5051252;28;20033;-81
2022/07/06 07:30:32;;;;;;;3.83;0.80;;;;;;;15.79;100.00;156488.44;5007335;28;20044;-79
2022/07/06 07:33:00;;;;;;;6.43;0.93;;;;;;;16.00;99.82;156541.22;5029680;28;20053;-79
2022/07/06 07:35:27;;;;;;;5.90;1.00;;;;;;;16.06;98.13;156556.66;5026566;28;20036;-79
2022/07/06 07:37:52;;;;;;;5.18;0.88;;;;;;;16.10;98.04;156566.94;5022030;28;20042;-80
2022/07/06 07:40:18;;;;;;;4.55;0.88;;;;;;;16.05;99.40;156554.09;5010482;28;20477;-80
2022/07/06 07:42:45;;;;;;;6.68;0.98;;;;;;;15.90;98.78;156515.50;5018218;28;20493;-78
2022/07/06 07:45:12;;;;;;;6.28;1.13;;;;;;;15.71;100.00;156467.81;5033173;28;20029;-80
2022/07/06 07:47:38;;;;;;;3.63;1.02;;;;;;;15.42;100.00;156395.72;4999432;28;20103;-78
2022/07/06 07:50:05;;;;;;;3.17;0.80;;;;;;;15.25;100.00;156352.00;5024565;28;20080;-78
2022/07/06 07:52:30;;;;;;;9.10;1.55;;;;;;;15.13;100.00;156323.69;5011898;28;20085;-82
2022/07/06 07:54:56;;;;;;;7.75;0.98;;;;;;;14.67;100.00;156207.88;5019997;28;20030;-81
2022/07/06 07:57:22;;;;;;;4.18;0.90;;;;;;;14.33;100.00;156121.69;5011870;28;20044;-81
2022/07/06 07:59:48;;;;;;;4.93;0.73;;;;;;;14.25;100.00;156102.41;5028531;28;20029;-81
2022/07/06 08:02:14;;;;;;;3.22;0.80;;;;;;;14.11;100.00;156067.69;5010238;28;20045;-80
2022/07/06 08:04:40;;;;;;;3.28;0.90;;;;;;;14.07;100.00;156056.09;5008227;28;20516;-80
2022/07/06 08:07:06;;;;;;;5.68;0.80;;;;;;;14.02;100.00;156044.56;4963417;28;20070;-79
2022/07/06 08:09:32;;;;;;;3.95;0.95;;;;;;;14.12;100.00;156068.97;4970932;28;20505;-81
2022/07/06 08:11:58;;;;;;;4.65;0.93;;;;;;;13.99;100.00;156038.13;4976038;28;20066;-81
2022/07/06 08:14:24;;;;;;;4.05;0.85;;;;;;;13.94;100.00;156024.00;4973219;28;20122;-82
2022/07/06 08:16:49;;;;;;;3.95;0.93;;;;;;;13.85;100.00;156002.13;4975353;28;20039;-82
2022/07/06 08:19:16;;;;;;;3.88;1.10;;;;;;;13.73;100.00;155972.56;4964451;28;20169;-80
2022/07/06 08:21:42;;;;;;;5.10;1.20;;;;;;;13.75;100.00;155976.38;4987344;28;20039;-79
2022/07/06 08:24:09;;;;;;;10.05;1.30;;;;;;;13.72;100.00;155969.97;4986962;28;20091;-80
2022/07/06 08:26:35;;;;;;;6.28;1.42;;;;;;;13.67;100.00;155955.84;4994084;28;20050;-78
2022/07/06 08:29:00;;;;;;;6.97;1.40;;;;;;;13.68;100.00;155958.44;4979956;28;20030;-79
2022/07/06 08:31:29;;;;;;;6.68;1.35;;;;;;;13.72;100.00;155968.72;4978448;28;20030;-80
2022/07/06 08:33:55;;;;;;;5.20;1.10;;;;;;;13.63;100.00;155946.84;4975810;28;20034;-79
2022/07/06 08:36:22;;;;;;;4.95;1.00;;;;;;;13.67;100.00;155957.13;4974972;28;20030;-79
2022/07/06 08:38:48;;;;;;;6.25;1.25;;;;;;;13.62;100.00;155945.56;4977980;28;20563;-80
2022/07/06 08:41:15;;;;;;;5.30;1.50;;;;;;;13.56;100.00;155928.84;4989323;28;20054;-79
2022/07/06 08:43:42;;;;;;;4.95;1.23;;;;;;;13.39;100.00;155887.75;4988191;28;20038;-79
2022/07/06 08:46:08;;;;;;;2.97;1.00;;;;;;;13.39;100.00;155886.41;4992396;28;20029;-78
2022/07/06 08:48:40;;;;;;;4.60;1.05;;;;;;;13.32;100.00;155869.75;4975944;28;20038;-78
2022/07/06 08:51:05;;;;;;;7.13;1.50;;;;;;;13.30;100.00;155864.59;4994396;28;20066;-79
2022/07/06 08:53:32;;;;;;;5.72;1.48;;;;;;;13.42;100.00;155894.16;4979326;28;20058;-80
2022/07/06 08:55:57;;;;;;;2.60;1.05;;;;;;;13.55;100.00;155927.56;4979116;28;20687;-79
2022/07/06 08:58:25;;;;;;;2.78;0.90;;;;;;;13.78;100.00;155985.41;4990532;28;20050;-81
2022/07/06 09:00:50;;;;;;;4.43;1.08;;;;;;;13.93;100.00;156022.69;4988371;28;20386;-80
2022/07/06 09:03:16;;;;;;;2.58;0.88;;;;;;;14.16;100.00;156079.25;4984446;28;20040;-80
2022/07/06 09:05:45;;;;;;;2.50;0.70;;;;;;;14.32;100.00;156119.13;4978774;28;20034;-80
2022/07/06 09:08:11;;;;;;;4.07;0.90;;;;;;;14.50;100.00;156165.41;4979005;28;20060;-81
2022/07/06 09:10:37;;;;;;;1.83;0.60;;;;;;;14.53;100.00;156171.84;4973541;28;20378;-80
2022/07/06 09:13:04;;;;;;;2.63;0.70;;;;;;;14.69;100.00;156211.75;4988549;28;20038;-81
2022/07/06 09:15:31;;;;;;;3.17;0.82;;;;;;;14.86;100.00;156255.53;4977765;28;20038;-82
2022/07/06 09:17:57;;;;;;;3.55;0.80;;;;;;;14.97;100.00;156283.81;4991140;28;20045;-81
2022/07/06 09:20:23;;;;;;;7.63;1.10;;;;;;;15.17;100.00;156332.69;4985508;28;20030;-83
2022/07/06 09:22:49;;;;;;;2.67;0.70;;;;;;;15.27;100.00;156358.41;4987901;28;20111;-83
2022/07/06 09:25:16;;;;;;;2.83;0.73;;;;;;;15.35;100.00;156377.69;4992191;28;20042;-81
2022/07/06 09:27:47;;;;;;;3.60;0.70;;;;;;;15.58;100.00;156436.91;4994288;28;20045;-81
2022/07/06 09:30:14;;;;;;;1.60;0.70;;;;;;;15.68;100.00;156461.34;4976626;28;20436;-82
2022/07/06 09:32:45;;;;;;;5.90;1.08;;;;;;;15.77;100.00;156484.56;4990816;28;20051;-80
2022/07/06 09:35:22;;;;;;;2.25;0.80;;;;;;;15.98;100.00;156534.78;4985710;28;20041;-80
2022/07/06 09:37:59;;;;;;;3.88;0.63;;;;;;;16.00;100.00;156541.22;4992756;28;20026;-82
2022/07/06 09:40:25;;;;;;;1.92;0.52;;;;;;;16.11;100.00;156569.53;4974185;28;20034;-79
2022/07/06 09:42:50;;;;;;;5.30;0.90;;;;;;;16.18;100.00;156584.97;4987710;28;20486;-82
2022/07/06 09:45:22;;;;;;;3.20;0.73;;;;;;;16.24;100.00;156600.44;4993552;28;20034;-80
2022/07/06 09:47:48;;;;;;;5.35;0.90;;;;;;;16.22;100.00;156596.56;4994264;28;20026;-81
2022/07/06 09:50:17;;;;;;;3.60;0.73;;;;;;;16.30;100.00;156617.16;4978911;28;20042;-79
2022/07/06 09:52:53;;;;;;;2.45;0.90;;;;;;;16.55;100.00;156678.94;4986002;28;20069;-80
2022/07/06 09:55:21;;;;;;;2.90;0.80;;;;;;;16.73;100.00;156724.03;4977093;28;20045;-79
2022/07/06 09:57:56;;;;;;;5.13;1.30;;;;;;;16.55;100.00;156680.22;4996878;28;20549;-80
2022/07/06 10:00:23;;;;;;;4.00;0.90;;;;;;;16.58;100.00;156686.69;4976147;28;20034;-81
2022/07/06 10:02:48;;;;;;;3.47;1.17;;;;;;;16.44;100.00;156651.91;4987345;28;20570;-82
2022/07/06 10:05:17;;;;;;;5.50;1.13;;;;;;;16.29;100.00;156613.28;4972154;28;20129;-82
2022/07/06 10:07:46;;;;;;;3.17;0.90;;;;;;;16.24;100.00;156601.72;4971307;28;20038;-80
2022/07/06 10:10:11;;;;;;;2.88;1.02;;;;;;;16.27;100.00;156608.16;4989683;28;20034;-80
2022/07/06 10:12:38;;;;;;;3.42;1.00;;;;;;;16.22;100.00;156596.56;4976430;28;20030;-80
2022/07/06 10:15:05;;;;;;;2.35;0.98;;;;;;;16.36;100.00;156631.31;4951437;28;20038;-79
2022/07/06 10:17:31;;;;;;;3.08;0.93;;;;;;;16.67;100.00;156709.88;4981450;28;20042;-80
2022/07/06 10:19:57;;;;;;;4.20;1.00;;;;;;;16.99;100.00;156788.47;4959899;28;20026;-79
2022/07/06 10:22:22;;;;;;;4.05;1.20;;;;;;;17.50;100.00;156917.31;4973702;28;20413;-80
2022/07/06 10:24:50;;;;;;;3.60;1.05;;;;;;;17.80;100.00;156993.31;4988150;28;20037;-81
2022/07/06 10:27:16;;;;;;;2.90;0.93;;;;;;;18.19;100.00;157091.28;4974095;28;20038;-80
2022/07/06 10:29:42;;;;;;;1.75;0.60;;;;;;;18.45;100.00;157157.00;4994422;28;20034;-80
2022/07/06 10:32:09;;;;;;;2.55;0.80;;;;;;;18.26;96.89;157108.03;4982957;28;20387;-80
2022/07/06 10:34:36;;;;;;;1.42;0.73;;;;;;;17.82;98.31;156998.47;4984381;28;20041;-80
2022/07/06 10:37:02;;;;;;;3.50;0.70;;;;;;;17.35;100.00;156878.63;4991978;28;20501;-80
2022/07/06 10:42:49;;;;;;;2.95;0.80;;;;;;;16.45;100.00;156654.50;4989000;28;20046;-80
2022/07/06 10:45:21;;;;;;;4.28;0.93;;;;;;;16.10;100.00;156566.94;4989086;28;20034;-79
2022/07/06 10:47:47;;;;;;;5.47;0.90;;;;;;;15.72;100.00;156471.63;4975098;28;20034;-79
2022/07/06 10:50:13;;;;;;;2.55;0.60;;;;;;;15.32;100.00;156370.00;5004258;28;20068;-79
2022/07/06 10:52:51;;;;;;;5.28;0.52;;;;;;;14.98;100.00;156286.38;4990303;28;20133;-79
2022/07/06 10:55:35;;;;;;;5.05;0.60;;;;;;;14.54;100.00;156175.72;4974983;28;20048;-81
2022/07/06 10:58:02;;;;;;;2.83;0.40;;;;;;;14.34;100.00;156124.28;4986256;28;20045;-78
2022/07/06 11:00:48;;;;;;;2.97;0.75;;;;;;;14.13;100.00;156072.84;4987243;28;20023;-79
2022/07/06 11:03:29;;;;;;;3.88;0.60;;;;;;;13.92;100.00;156020.13;4973194;28;20399;-79
2022/07/06 11:05:59;;;;;;;4.53;0.90;;;;;;;13.78;100.00;155984.13;4990937;28;20516;-80
2022/07/06 11:08:44;;;;;;;3.95;0.80;;;;;;;13.69;100.00;155960.97;4989864;28;20125;-79
2022/07/06 11:11:16;;;;;;;2.95;0.70;;;;;;;13.59;100.00;155937.84;4988178;28;20041;-79
2022/07/06 11:13:43;;;;;;;4.07;0.90;;;;;;;13.54;100.00;155925.03;4993884;28;20043;-80
2022/07/06 11:16:09;;;;;;;4.60;1.23;;;;;;;13.47;100.00;155905.69;4990036;28;20034;-80
2022/07/06 11:18:47;;;;;;;4.00;1.10;;;;;;;13.48;100.00;155909.56;4977311;28;20131;-81
2022/07/06 11:21:21;;;;;;;3.80;1.15;;;;;;;13.61;100.00;155942.97;4966303;28;20050;-81
2022/07/06 11:23:48;;;;;;;2.75;1.10;;;;;;;13.77;100.00;155981.56;4993374;28;20123;-83
2022/07/06 11:26:16;;;;;;;4.63;1.15;;;;;;;14.00;100.00;156040.69;4971956;28;20038;-79
2022/07/06 11:28:41;;;;;;;5.28;1.30;;;;;;;14.32;100.00;156120.41;4989395;28;20393;-81
2022/07/06 11:31:07;;;;;;;5.00;1.08;;;;;;;14.51;100.00;156168.00;4968544;28;20038;-82
2022/07/06 11:33:33;;;;;;;2.35;0.95;;;;;;;14.79;100.00;156237.50;4988741;28;20046;-81
2022/07/06 11:36:31;;;;;;;7.75;1.05;;;;;;;15.11;100.00;156318.53;4976869;28;20030;-80